TOM4PZ LIPX-EGSS
Flight info
| Callsign | TOM4PZ |
|---|---|
| Flight time | 1h 53m |
| Altitude | 36000 |
| Route | LEGLO DCT ABESI DCT UTAVO DCT HOC DCT LUL DCT RLP DCT ROTSI DCT KOTUN DCT NIDUV DCT SOSUN DCT SUBIP UM733 BANVA |
| Aircraft | B738/M-SDE2E3FGHIRWXY/LB1 |
Departure
| Time | 2026-04-20 20:34 |
|---|---|
| Airport | Verona Villafranca Valerio Catullo Airport (LIPX) |
Arrival
| Time | 2026-04-20 22:27 |
|---|---|
| Airport | London Stansted Airport (EGSS) |
| Time | Latitude | Longitude | Altitude | Speed | Heading |
|---|---|---|---|---|---|
| 2026-04-20 19:34 | 45.40330 | 10.90636 | 241 ft | 0 kts | 135° |
| 2026-04-20 20:06 | 45.40335 | 10.90628 | 241 ft | 4 kts | 145° |
| 2026-04-20 20:06 | 45.40352 | 10.90610 | 241 ft | 4 kts | 129° |
| 2026-04-20 20:07 | 45.40361 | 10.90579 | 241 ft | 4 kts | 75° |
| 2026-04-20 20:07 | 45.40353 | 10.90557 | 241 ft | 3 kts | 46° |
| 2026-04-20 20:07 | 45.40367 | 10.90578 | 241 ft | 4 kts | 46° |
| 2026-04-20 20:07 | 45.40386 | 10.90605 | 241 ft | 4 kts | 46° |
| 2026-04-20 20:08 | 45.40405 | 10.90633 | 241 ft | 4 kts | 45° |
| 2026-04-20 20:08 | 45.40409 | 10.90639 | 241 ft | 0 kts | 45° |
| 2026-04-20 20:12 | 45.40426 | 10.90664 | 241 ft | 10 kts | 46° |
| 2026-04-20 20:12 | 45.40506 | 10.90760 | 241 ft | 16 kts | 15° |
| 2026-04-20 20:13 | 45.40510 | 10.90541 | 241 ft | 15 kts | 226° |
| 2026-04-20 20:13 | 45.40433 | 10.90430 | 241 ft | 17 kts | 225° |
| 2026-04-20 20:13 | 45.40348 | 10.90301 | 241 ft | 18 kts | 237° |
| 2026-04-20 20:13 | 45.40348 | 10.90137 | 243 ft | 17 kts | 294° |
| 2026-04-20 20:14 | 45.40360 | 10.89981 | 245 ft | 17 kts | 227° |
| 2026-04-20 20:14 | 45.40268 | 10.89868 | 246 ft | 21 kts | 225° |
| 2026-04-20 20:14 | 45.40131 | 10.89668 | 245 ft | 36 kts | 226° |
| 2026-04-20 20:14 | 45.39921 | 10.89364 | 240 ft | 50 kts | 225° |
| 2026-04-20 20:15 | 45.39681 | 10.89017 | 239 ft | 48 kts | 225° |
| 2026-04-20 20:15 | 45.39458 | 10.88689 | 238 ft | 44 kts | 226° |
| 2026-04-20 20:15 | 45.39247 | 10.88381 | 233 ft | 42 kts | 225° |
| 2026-04-20 20:15 | 45.39047 | 10.88092 | 232 ft | 40 kts | 225° |
| 2026-04-20 20:16 | 45.38857 | 10.87833 | 231 ft | 35 kts | 207° |
| 2026-04-20 20:16 | 45.38709 | 10.87744 | 230 ft | 0 kts | 224° |
| 2026-04-20 20:32 | 45.38707 | 10.87740 | 229 ft | 2 kts | 229° |
| 2026-04-20 20:32 | 45.38710 | 10.87682 | 229 ft | 10 kts | 299° |
| 2026-04-20 20:32 | 45.38771 | 10.87690 | 231 ft | 11 kts | 50° |
| 2026-04-20 20:32 | 45.38788 | 10.87715 | 230 ft | 0 kts | 46° |
| 2026-04-20 20:33 | 45.38821 | 10.87763 | 230 ft | 28 kts | 46° |
| 2026-04-20 20:33 | 45.39123 | 10.88206 | 232 ft | 96 kts | 46° |
| 2026-04-20 20:33 | 45.39722 | 10.89091 | 239 ft | 151 kts | 47° |
| 2026-04-20 20:33 | 45.40502 | 10.90294 | 574 ft | 172 kts | 49° |
| 2026-04-20 20:34 | 45.41278 | 10.91615 | 1219 ft | 175 kts | 62° |
| 2026-04-20 20:34 | 45.41552 | 10.93265 | 1992 ft | 173 kts | 99° |
| 2026-04-20 20:34 | 45.40938 | 10.94855 | 2273 ft | 203 kts | 138° |
| 2026-04-20 20:34 | 45.39829 | 10.96102 | 2877 ft | 203 kts | 140° |
| 2026-04-20 20:35 | 45.38714 | 10.97484 | 3108 ft | 223 kts | 136° |
| 2026-04-20 20:35 | 45.37580 | 10.99107 | 3383 ft | 238 kts | 134° |
| 2026-04-20 20:35 | 45.36195 | 11.00415 | 3740 ft | 245 kts | 167° |
| 2026-04-20 20:35 | 45.34531 | 11.00295 | 3975 ft | 243 kts | 204° |
| 2026-04-20 20:36 | 45.33254 | 10.98785 | 4225 ft | 242 kts | 237° |
| 2026-04-20 20:36 | 45.32622 | 10.96590 | 4808 ft | 239 kts | 262° |
| 2026-04-20 20:36 | 45.32723 | 10.94187 | 5102 ft | 254 kts | 287° |
| 2026-04-20 20:36 | 45.33347 | 10.91777 | 5629 ft | 264 kts | 291° |
| 2026-04-20 20:37 | 45.34036 | 10.89364 | 6471 ft | 262 kts | 292° |
| 2026-04-20 20:37 | 45.34718 | 10.87007 | 7303 ft | 261 kts | 292° |
| 2026-04-20 20:37 | 45.35407 | 10.84613 | 8030 ft | 264 kts | 292° |
| 2026-04-20 20:37 | 45.36103 | 10.82183 | 8773 ft | 266 kts | 292° |
| 2026-04-20 20:38 | 45.36801 | 10.79725 | 9504 ft | 269 kts | 292° |
| 2026-04-20 20:38 | 45.37500 | 10.77256 | 10223 ft | 271 kts | 292° |
| 2026-04-20 20:38 | 45.38223 | 10.74686 | 10494 ft | 291 kts | 292° |
| 2026-04-20 20:38 | 45.38492 | 10.73732 | 10553 ft | 298 kts | 292° |
| 2026-04-20 20:41 | 45.38662 | 10.73123 | 10589 ft | 303 kts | 292° |
| 2026-04-20 20:42 | 45.39470 | 10.70242 | 10760 ft | 324 kts | 292° |
| 2026-04-20 20:42 | 45.40316 | 10.67215 | 10888 ft | 343 kts | 292° |
| 2026-04-20 20:42 | 45.41221 | 10.63966 | 10941 ft | 363 kts | 291° |
| 2026-04-20 20:42 | 45.42163 | 10.60581 | 11319 ft | 372 kts | 291° |
| 2026-04-20 20:43 | 45.43117 | 10.57145 | 11917 ft | 374 kts | 291° |
| 2026-04-20 20:43 | 45.44072 | 10.53696 | 12579 ft | 375 kts | 291° |
| 2026-04-20 20:43 | 45.45034 | 10.50220 | 13193 ft | 378 kts | 291° |
| 2026-04-20 20:43 | 45.46001 | 10.46722 | 13825 ft | 381 kts | 291° |
| 2026-04-20 20:44 | 45.46973 | 10.43198 | 14433 ft | 383 kts | 291° |
| 2026-04-20 20:44 | 45.47950 | 10.39649 | 15068 ft | 385 kts | 291° |
| 2026-04-20 20:44 | 45.48998 | 10.36127 | 15665 ft | 387 kts | 297° |
| 2026-04-20 20:44 | 45.50475 | 10.32901 | 16235 ft | 391 kts | 307° |
| 2026-04-20 20:45 | 45.52161 | 10.29840 | 16810 ft | 393 kts | 307° |
| 2026-04-20 20:45 | 45.53851 | 10.26757 | 17219 ft | 398 kts | 307° |
| 2026-04-20 20:45 | 45.55557 | 10.23624 | 17797 ft | 400 kts | 306° |
| 2026-04-20 20:45 | 45.57258 | 10.20476 | 18381 ft | 401 kts | 306° |
| 2026-04-20 20:46 | 45.58959 | 10.17312 | 18912 ft | 402 kts | 306° |
| 2026-04-20 20:46 | 45.60657 | 10.14145 | 19470 ft | 402 kts | 306° |
| 2026-04-20 20:46 | 45.62361 | 10.10959 | 19960 ft | 405 kts | 306° |
| 2026-04-20 20:46 | 45.64076 | 10.07752 | 20415 ft | 407 kts | 306° |
| 2026-04-20 20:47 | 45.65797 | 10.04532 | 20867 ft | 410 kts | 306° |
| 2026-04-20 20:47 | 45.67532 | 10.01279 | 21305 ft | 412 kts | 306° |
| 2026-04-20 20:47 | 45.69268 | 9.98016 | 21689 ft | 414 kts | 306° |
| 2026-04-20 20:47 | 45.71013 | 9.94733 | 22080 ft | 415 kts | 305° |
| 2026-04-20 20:48 | 45.72760 | 9.91429 | 22481 ft | 417 kts | 306° |
| 2026-04-20 20:48 | 45.74489 | 9.88154 | 22945 ft | 418 kts | 306° |
| 2026-04-20 20:48 | 45.76242 | 9.84835 | 23435 ft | 418 kts | 305° |
| 2026-04-20 20:48 | 45.77999 | 9.81508 | 23773 ft | 420 kts | 305° |
| 2026-04-20 20:49 | 45.79760 | 9.78162 | 24018 ft | 422 kts | 305° |
| 2026-04-20 20:49 | 45.81536 | 9.74792 | 24338 ft | 425 kts | 305° |
| 2026-04-20 20:49 | 45.83318 | 9.71408 | 24709 ft | 425 kts | 305° |
| 2026-04-20 20:49 | 45.85104 | 9.68018 | 25058 ft | 427 kts | 305° |
| 2026-04-20 20:50 | 45.86891 | 9.64618 | 25394 ft | 428 kts | 305° |
| 2026-04-20 20:50 | 45.88684 | 9.61202 | 25674 ft | 429 kts | 305° |
| 2026-04-20 20:50 | 45.90477 | 9.57782 | 26080 ft | 427 kts | 305° |
| 2026-04-20 20:50 | 45.92260 | 9.54379 | 26506 ft | 425 kts | 305° |
| 2026-04-20 20:51 | 45.94028 | 9.50999 | 26989 ft | 422 kts | 305° |
| 2026-04-20 20:51 | 45.95790 | 9.47624 | 27364 ft | 423 kts | 304° |
| 2026-04-20 20:51 | 45.97554 | 9.44242 | 27751 ft | 422 kts | 304° |
| 2026-04-20 20:51 | 45.99307 | 9.40877 | 28299 ft | 418 kts | 304° |
| 2026-04-20 20:52 | 46.01041 | 9.37545 | 28841 ft | 415 kts | 304° |
| 2026-04-20 20:52 | 46.02763 | 9.34231 | 29266 ft | 413 kts | 304° |
| 2026-04-20 20:52 | 46.04485 | 9.30915 | 29668 ft | 413 kts | 304° |
| 2026-04-20 20:52 | 46.06202 | 9.27602 | 30060 ft | 412 kts | 304° |
| 2026-04-20 20:53 | 46.07913 | 9.24298 | 30385 ft | 411 kts | 304° |
| 2026-04-20 20:53 | 46.09617 | 9.21002 | 30652 ft | 411 kts | 304° |
| 2026-04-20 20:53 | 46.11327 | 9.17694 | 30975 ft | 410 kts | 304° |
| 2026-04-20 20:53 | 46.13025 | 9.14404 | 31306 ft | 409 kts | 304° |
| 2026-04-20 20:54 | 46.14702 | 9.11151 | 31605 ft | 409 kts | 304° |
| 2026-04-20 20:54 | 46.16421 | 9.07811 | 31876 ft | 409 kts | 304° |
| 2026-04-20 20:54 | 46.18113 | 9.04520 | 32182 ft | 409 kts | 304° |
| 2026-04-20 20:54 | 46.19802 | 9.01231 | 32527 ft | 408 kts | 304° |
| 2026-04-20 20:55 | 46.21468 | 8.97982 | 32870 ft | 407 kts | 304° |
| 2026-04-20 20:55 | 46.23154 | 8.94692 | 33113 ft | 409 kts | 304° |
| 2026-04-20 20:55 | 46.24872 | 8.91334 | 33296 ft | 411 kts | 304° |
| 2026-04-20 20:55 | 46.26546 | 8.88059 | 33614 ft | 410 kts | 304° |
| 2026-04-20 20:56 | 46.28235 | 8.84752 | 33941 ft | 408 kts | 305° |
| 2026-04-20 20:56 | 46.29920 | 8.81445 | 34106 ft | 408 kts | 305° |
| 2026-04-20 20:56 | 46.31612 | 8.78122 | 34255 ft | 412 kts | 305° |
| 2026-04-20 20:56 | 46.33315 | 8.74776 | 34440 ft | 412 kts | 305° |
| 2026-04-20 20:57 | 46.35011 | 8.71440 | 34730 ft | 411 kts | 305° |
| 2026-04-20 20:57 | 46.36704 | 8.68108 | 34961 ft | 411 kts | 305° |
| 2026-04-20 20:57 | 46.37830 | 8.65888 | 35091 ft | 412 kts | 305° |
| 2026-04-20 20:57 | 46.39532 | 8.62527 | 35271 ft | 415 kts | 304° |
| 2026-04-20 20:58 | 46.41240 | 8.59151 | 35546 ft | 415 kts | 305° |
| 2026-04-20 20:58 | 46.42946 | 8.55776 | 35752 ft | 415 kts | 304° |
| 2026-04-20 20:58 | 46.44649 | 8.52403 | 36001 ft | 414 kts | 304° |
| 2026-04-20 20:58 | 46.46355 | 8.49018 | 35995 ft | 417 kts | 304° |
| 2026-04-20 20:59 | 46.49771 | 8.42229 | 36013 ft | 415 kts | 305° |
| 2026-04-20 20:59 | 46.53163 | 8.35472 | 36040 ft | 413 kts | 305° |
| 2026-04-20 21:00 | 46.56529 | 8.28752 | 36054 ft | 410 kts | 305° |
| 2026-04-20 21:00 | 46.59871 | 8.22063 | 36049 ft | 408 kts | 305° |
| 2026-04-20 21:01 | 46.63207 | 8.15368 | 36042 ft | 408 kts | 305° |
| 2026-04-20 21:01 | 46.66539 | 8.08666 | 36056 ft | 409 kts | 304° |
| 2026-04-20 21:02 | 46.69879 | 8.01932 | 36059 ft | 411 kts | 305° |
| 2026-04-20 21:02 | 46.73230 | 7.95161 | 36045 ft | 413 kts | 305° |
| 2026-04-20 21:03 | 46.76595 | 7.88341 | 36048 ft | 415 kts | 305° |
| 2026-04-20 21:03 | 46.79959 | 7.81511 | 36048 ft | 414 kts | 304° |
| 2026-04-20 21:04 | 46.83317 | 7.74675 | 36044 ft | 414 kts | 304° |
| 2026-04-20 21:04 | 46.86646 | 7.67880 | 36051 ft | 414 kts | 304° |
| 2026-04-20 21:05 | 46.89990 | 7.61037 | 36047 ft | 414 kts | 304° |
| 2026-04-20 21:05 | 46.93329 | 7.54190 | 36082 ft | 413 kts | 304° |
| 2026-04-20 21:06 | 46.96668 | 7.47324 | 36059 ft | 415 kts | 304° |
| 2026-04-20 21:06 | 47.00011 | 7.40432 | 36044 ft | 416 kts | 304° |
| 2026-04-20 21:07 | 47.03355 | 7.33522 | 36048 ft | 416 kts | 304° |
| 2026-04-20 21:07 | 47.06696 | 7.26603 | 36053 ft | 416 kts | 304° |
| 2026-04-20 21:08 | 47.10032 | 7.19674 | 36071 ft | 415 kts | 304° |
| 2026-04-20 21:08 | 47.13360 | 7.12745 | 36068 ft | 415 kts | 304° |
| 2026-04-20 21:09 | 47.16685 | 7.05806 | 36072 ft | 415 kts | 304° |
| 2026-04-20 21:09 | 47.20010 | 6.98847 | 36076 ft | 416 kts | 304° |
| 2026-04-20 21:10 | 47.23329 | 6.91886 | 36094 ft | 416 kts | 304° |
| 2026-04-20 21:10 | 47.26624 | 6.84956 | 36073 ft | 415 kts | 304° |
| 2026-04-20 21:11 | 47.29931 | 6.77985 | 36083 ft | 415 kts | 304° |
| 2026-04-20 21:11 | 47.33233 | 6.71005 | 36081 ft | 415 kts | 304° |
| 2026-04-20 21:12 | 47.36526 | 6.64027 | 36063 ft | 415 kts | 304° |
| 2026-04-20 21:12 | 47.39816 | 6.57038 | 36080 ft | 414 kts | 304° |
| 2026-04-20 21:13 | 47.43100 | 6.50042 | 36077 ft | 414 kts | 304° |
| 2026-04-20 21:13 | 47.46381 | 6.43037 | 36082 ft | 414 kts | 304° |
| 2026-04-20 21:14 | 47.49655 | 6.36029 | 36083 ft | 414 kts | 303° |
| 2026-04-20 21:14 | 47.52924 | 6.29013 | 36091 ft | 414 kts | 303° |
| 2026-04-20 21:15 | 47.56189 | 6.21987 | 36093 ft | 414 kts | 304° |
| 2026-04-20 21:15 | 47.59456 | 6.14941 | 36096 ft | 415 kts | 303° |
| 2026-04-20 21:16 | 47.62723 | 6.07874 | 36092 ft | 416 kts | 303° |
| 2026-04-20 21:16 | 47.65972 | 6.00830 | 36094 ft | 417 kts | 303° |
| 2026-04-20 21:17 | 47.69242 | 5.93720 | 36088 ft | 417 kts | 303° |
| 2026-04-20 21:17 | 47.72507 | 5.86604 | 36094 ft | 417 kts | 303° |
| 2026-04-20 21:18 | 47.75766 | 5.79482 | 36094 ft | 417 kts | 303° |
| 2026-04-20 21:18 | 47.79016 | 5.72363 | 36101 ft | 416 kts | 303° |
| 2026-04-20 21:19 | 47.82264 | 5.65228 | 36102 ft | 416 kts | 303° |
| 2026-04-20 21:20 | 47.87122 | 5.54521 | 36110 ft | 416 kts | 303° |
| 2026-04-20 21:20 | 47.90357 | 5.47367 | 36111 ft | 416 kts | 303° |
| 2026-04-20 21:21 | 47.93580 | 5.40222 | 36117 ft | 415 kts | 303° |
| 2026-04-20 21:21 | 47.96795 | 5.33075 | 36116 ft | 415 kts | 303° |
| 2026-04-20 21:22 | 48.00003 | 5.25926 | 36120 ft | 414 kts | 303° |
| 2026-04-20 21:22 | 48.03202 | 5.18779 | 36128 ft | 414 kts | 303° |
| 2026-04-20 21:23 | 48.06394 | 5.11628 | 36123 ft | 414 kts | 303° |
| 2026-04-20 21:23 | 48.09582 | 5.04466 | 36121 ft | 414 kts | 303° |
| 2026-04-20 21:24 | 48.12745 | 4.97341 | 36138 ft | 414 kts | 303° |
| 2026-04-20 21:24 | 48.15934 | 4.90140 | 36134 ft | 415 kts | 303° |
| 2026-04-20 21:25 | 48.19117 | 4.82934 | 36133 ft | 415 kts | 303° |
| 2026-04-20 21:25 | 48.22298 | 4.75711 | 36138 ft | 415 kts | 303° |
| 2026-04-20 21:26 | 48.25477 | 4.68477 | 36123 ft | 415 kts | 303° |
| 2026-04-20 21:26 | 48.28787 | 4.61374 | 36133 ft | 416 kts | 309° |
| 2026-04-20 21:27 | 48.32647 | 4.54875 | 36142 ft | 417 kts | 311° |
| 2026-04-20 21:27 | 48.36549 | 4.48413 | 36159 ft | 418 kts | 310° |
| 2026-04-20 21:28 | 48.40426 | 4.41902 | 36151 ft | 418 kts | 310° |
| 2026-04-20 21:28 | 48.44285 | 4.35357 | 36148 ft | 418 kts | 310° |
| 2026-04-20 21:29 | 48.48137 | 4.28797 | 36144 ft | 418 kts | 310° |
| 2026-04-20 21:29 | 48.51988 | 4.22223 | 36156 ft | 418 kts | 310° |
| 2026-04-20 21:30 | 48.55830 | 4.15647 | 36154 ft | 418 kts | 310° |
| 2026-04-20 21:30 | 48.59671 | 4.09059 | 36165 ft | 418 kts | 310° |
| 2026-04-20 21:31 | 48.63512 | 4.02453 | 36166 ft | 418 kts | 310° |
| 2026-04-20 21:31 | 48.67351 | 3.95833 | 36161 ft | 419 kts | 310° |
| 2026-04-20 21:32 | 48.71186 | 3.89207 | 36160 ft | 418 kts | 310° |
| 2026-04-20 21:32 | 48.74983 | 3.82527 | 36162 ft | 418 kts | 309° |
| 2026-04-20 21:33 | 48.78686 | 3.75811 | 36169 ft | 418 kts | 308° |
| 2026-04-20 21:33 | 48.82407 | 3.69035 | 36171 ft | 418 kts | 308° |
| 2026-04-20 21:34 | 48.86128 | 3.62263 | 36173 ft | 418 kts | 308° |
| 2026-04-20 21:34 | 48.89856 | 3.55473 | 36176 ft | 418 kts | 308° |
| 2026-04-20 21:35 | 48.93578 | 3.48680 | 36166 ft | 418 kts | 308° |
| 2026-04-20 21:35 | 48.97292 | 3.41883 | 36176 ft | 418 kts | 308° |
| 2026-04-20 21:36 | 49.01005 | 3.35070 | 36178 ft | 418 kts | 308° |
| 2026-04-20 21:36 | 49.04710 | 3.28254 | 36193 ft | 418 kts | 308° |
| 2026-04-20 21:37 | 49.08412 | 3.21426 | 36186 ft | 418 kts | 308° |
| 2026-04-20 21:37 | 49.12118 | 3.14574 | 36181 ft | 418 kts | 308° |
| 2026-04-20 21:38 | 49.15787 | 3.07772 | 36173 ft | 418 kts | 308° |
| 2026-04-20 21:38 | 49.19477 | 3.00913 | 36187 ft | 418 kts | 308° |
| 2026-04-20 21:39 | 49.23164 | 2.94041 | 36189 ft | 418 kts | 308° |
| 2026-04-20 21:39 | 49.26847 | 2.87160 | 36189 ft | 418 kts | 308° |
| 2026-04-20 21:40 | 49.30531 | 2.80259 | 36197 ft | 418 kts | 308° |
| 2026-04-20 21:40 | 49.34213 | 2.73346 | 36197 ft | 418 kts | 308° |
| 2026-04-20 21:41 | 49.37915 | 2.66452 | 36177 ft | 418 kts | 308° |
| 2026-04-20 21:41 | 49.41627 | 2.59587 | 36199 ft | 418 kts | 308° |
| 2026-04-20 21:42 | 49.45337 | 2.52703 | 36208 ft | 418 kts | 308° |
| 2026-04-20 21:42 | 49.49045 | 2.45793 | 36207 ft | 419 kts | 308° |
| 2026-04-20 21:43 | 49.52728 | 2.38910 | 36216 ft | 419 kts | 308° |
| 2026-04-20 21:43 | 49.56429 | 2.31972 | 36214 ft | 419 kts | 308° |
| 2026-04-20 21:44 | 49.60126 | 2.25025 | 36214 ft | 419 kts | 308° |
| 2026-04-20 21:44 | 49.63816 | 2.18074 | 36212 ft | 419 kts | 308° |
| 2026-04-20 21:45 | 49.67503 | 2.11108 | 36215 ft | 419 kts | 308° |
| 2026-04-20 21:45 | 49.71183 | 2.04136 | 36219 ft | 419 kts | 308° |
| 2026-04-20 21:46 | 49.74246 | 1.98320 | 36239 ft | 419 kts | 308° |
| 2026-04-20 21:46 | 49.77925 | 1.91318 | 36234 ft | 419 kts | 308° |
| 2026-04-20 21:47 | 49.81595 | 1.84313 | 36231 ft | 419 kts | 308° |
| 2026-04-20 21:47 | 49.85261 | 1.77296 | 36225 ft | 419 kts | 308° |
| 2026-04-20 21:48 | 49.88925 | 1.70266 | 36236 ft | 419 kts | 308° |
| 2026-04-20 21:48 | 49.92584 | 1.63225 | 36239 ft | 419 kts | 308° |
| 2026-04-20 21:49 | 49.96241 | 1.56173 | 36262 ft | 419 kts | 307° |
| 2026-04-20 21:49 | 50.00132 | 1.49426 | 36237 ft | 421 kts | 316° |
| 2026-04-20 21:50 | 50.04566 | 1.43472 | 36233 ft | 421 kts | 317° |
| 2026-04-20 21:50 | 50.08994 | 1.37520 | 36244 ft | 420 kts | 316° |
| 2026-04-20 21:51 | 50.13405 | 1.31526 | 36234 ft | 420 kts | 316° |
| 2026-04-20 21:51 | 50.17774 | 1.25549 | 36242 ft | 421 kts | 316° |
| 2026-04-20 21:52 | 50.22170 | 1.19517 | 36248 ft | 421 kts | 316° |
| 2026-04-20 21:52 | 50.26566 | 1.13471 | 36245 ft | 421 kts | 316° |
| 2026-04-20 21:53 | 50.30958 | 1.07415 | 36252 ft | 421 kts | 316° |
| 2026-04-20 21:53 | 50.35345 | 1.01349 | 36250 ft | 421 kts | 316° |
| 2026-04-20 21:54 | 50.39728 | 0.95274 | 36253 ft | 421 kts | 316° |
| 2026-04-20 21:54 | 50.44108 | 0.89190 | 36261 ft | 421 kts | 316° |
| 2026-04-20 21:55 | 50.48550 | 0.83203 | 36255 ft | 421 kts | 317° |
| 2026-04-20 21:55 | 50.53026 | 0.77276 | 36116 ft | 423 kts | 317° |
| 2026-04-20 21:55 | 50.55279 | 0.74268 | 35615 ft | 422 kts | 317° |
| 2026-04-20 21:56 | 50.57501 | 0.71306 | 34993 ft | 419 kts | 316° |
| 2026-04-20 21:56 | 50.59722 | 0.68348 | 34463 ft | 415 kts | 316° |
| 2026-04-20 21:56 | 50.61914 | 0.65428 | 33656 ft | 414 kts | 316° |
| 2026-04-20 21:56 | 50.64119 | 0.62479 | 32771 ft | 415 kts | 316° |
| 2026-04-20 21:57 | 50.66279 | 0.59591 | 32232 ft | 409 kts | 316° |
| 2026-04-20 21:57 | 50.68440 | 0.56697 | 31452 ft | 408 kts | 316° |
| 2026-04-20 21:57 | 50.70599 | 0.53800 | 30710 ft | 406 kts | 316° |
| 2026-04-20 21:57 | 50.72747 | 0.50914 | 29892 ft | 405 kts | 316° |
| 2026-04-20 21:58 | 50.74884 | 0.48039 | 29048 ft | 403 kts | 316° |
| 2026-04-20 21:58 | 50.77014 | 0.45173 | 28197 ft | 401 kts | 316° |
| 2026-04-20 21:58 | 50.79135 | 0.42314 | 27380 ft | 400 kts | 316° |
| 2026-04-20 21:58 | 50.81238 | 0.39474 | 26646 ft | 397 kts | 316° |
| 2026-04-20 21:59 | 50.83336 | 0.36636 | 25975 ft | 395 kts | 316° |
| 2026-04-20 21:59 | 50.85411 | 0.33827 | 25345 ft | 390 kts | 316° |
| 2026-04-20 21:59 | 50.87461 | 0.31047 | 24750 ft | 388 kts | 316° |
| 2026-04-20 21:59 | 50.89530 | 0.28234 | 24173 ft | 397 kts | 317° |
| 2026-04-20 22:00 | 50.91646 | 0.25354 | 23467 ft | 402 kts | 317° |
| 2026-04-20 22:00 | 50.93755 | 0.22484 | 22774 ft | 396 kts | 317° |
| 2026-04-20 22:00 | 50.95831 | 0.19658 | 22130 ft | 390 kts | 317° |
| 2026-04-20 22:00 | 50.97873 | 0.16873 | 21508 ft | 385 kts | 317° |
| 2026-04-20 22:01 | 50.99890 | 0.14118 | 20865 ft | 381 kts | 317° |
| 2026-04-20 22:01 | 51.01895 | 0.11392 | 20293 ft | 376 kts | 319° |
| 2026-04-20 22:01 | 51.03951 | 0.08921 | 20076 ft | 365 kts | 322° |
| 2026-04-20 22:01 | 51.06056 | 0.06609 | 19863 ft | 377 kts | 323° |
| 2026-04-20 22:02 | 51.08282 | 0.04213 | 19620 ft | 394 kts | 324° |
| 2026-04-20 22:02 | 51.10576 | 0.01739 | 19349 ft | 399 kts | 324° |
| 2026-04-20 22:02 | 51.12836 | -0.00718 | 19021 ft | 397 kts | 324° |
| 2026-04-20 22:02 | 51.15096 | -0.03196 | 18759 ft | 393 kts | 323° |
| 2026-04-20 22:03 | 51.17349 | -0.05686 | 18505 ft | 395 kts | 323° |
| 2026-04-20 22:03 | 51.19601 | -0.08186 | 18215 ft | 394 kts | 323° |
| 2026-04-20 22:03 | 51.21846 | -0.10685 | 17951 ft | 393 kts | 323° |
| 2026-04-20 22:03 | 51.24084 | -0.13181 | 17691 ft | 392 kts | 323° |
| 2026-04-20 22:04 | 51.26316 | -0.15673 | 17436 ft | 391 kts | 324° |
| 2026-04-20 22:04 | 51.28547 | -0.18167 | 17179 ft | 391 kts | 324° |
| 2026-04-20 22:04 | 51.30769 | -0.20654 | 16949 ft | 390 kts | 324° |
| 2026-04-20 22:04 | 51.32996 | -0.23150 | 16687 ft | 390 kts | 324° |
| 2026-04-20 22:05 | 51.35222 | -0.25646 | 16442 ft | 391 kts | 324° |
| 2026-04-20 22:05 | 51.37451 | -0.28148 | 16190 ft | 392 kts | 324° |
| 2026-04-20 22:05 | 51.39693 | -0.30649 | 15937 ft | 393 kts | 326° |
| 2026-04-20 22:05 | 51.42188 | -0.32410 | 15656 ft | 396 kts | 346° |
| 2026-04-20 22:06 | 51.44939 | -0.32717 | 15434 ft | 398 kts | 2° |
| 2026-04-20 22:06 | 51.47648 | -0.31812 | 15174 ft | 401 kts | 19° |
| 2026-04-20 22:06 | 51.50183 | -0.29967 | 14931 ft | 400 kts | 24° |
| 2026-04-20 22:06 | 51.52682 | -0.28001 | 14659 ft | 399 kts | 25° |
| 2026-04-20 22:07 | 51.55164 | -0.26032 | 14413 ft | 397 kts | 25° |
| 2026-04-20 22:07 | 51.57636 | -0.24085 | 14163 ft | 395 kts | 25° |
| 2026-04-20 22:07 | 51.60085 | -0.22176 | 13950 ft | 385 kts | 25° |
| 2026-04-20 22:07 | 51.62456 | -0.20339 | 13679 ft | 372 kts | 24° |
| 2026-04-20 22:08 | 51.64750 | -0.18569 | 13447 ft | 359 kts | 24° |
| 2026-04-20 22:08 | 51.66969 | -0.16858 | 13219 ft | 348 kts | 24° |
| 2026-04-20 22:08 | 51.69117 | -0.15202 | 13000 ft | 338 kts | 24° |
| 2026-04-20 22:08 | 51.71208 | -0.13588 | 12781 ft | 328 kts | 24° |
| 2026-04-20 22:09 | 51.73236 | -0.12020 | 12559 ft | 316 kts | 24° |
| 2026-04-20 22:09 | 51.75168 | -0.10526 | 12376 ft | 299 kts | 24° |
| 2026-04-20 22:09 | 51.77023 | -0.09180 | 12171 ft | 287 kts | 22° |
| 2026-04-20 22:09 | 51.78830 | -0.07926 | 11993 ft | 280 kts | 22° |
| 2026-04-20 22:10 | 51.80627 | -0.06686 | 11822 ft | 282 kts | 22° |
| 2026-04-20 22:10 | 51.82438 | -0.05432 | 11652 ft | 284 kts | 23° |
| 2026-04-20 22:10 | 51.84266 | -0.04160 | 11469 ft | 287 kts | 23° |
| 2026-04-20 22:10 | 51.86098 | -0.02880 | 11249 ft | 287 kts | 23° |
| 2026-04-20 22:11 | 51.87928 | -0.01597 | 11067 ft | 287 kts | 23° |
| 2026-04-20 22:11 | 51.89728 | -0.00333 | 10884 ft | 284 kts | 23° |
| 2026-04-20 22:11 | 51.91532 | 0.00937 | 10695 ft | 280 kts | 23° |
| 2026-04-20 22:11 | 51.93305 | 0.02185 | 10512 ft | 275 kts | 24° |
| 2026-04-20 22:12 | 51.95024 | 0.03397 | 10314 ft | 265 kts | 24° |
| 2026-04-20 22:12 | 51.96699 | 0.04579 | 10159 ft | 260 kts | 24° |
| 2026-04-20 22:12 | 51.98347 | 0.05740 | 9976 ft | 256 kts | 22° |
| 2026-04-20 22:12 | 52.00059 | 0.06365 | 9803 ft | 252 kts | 2° |
| 2026-04-20 22:13 | 52.01795 | 0.06403 | 9650 ft | 247 kts | 2° |
| 2026-04-20 22:13 | 52.03498 | 0.06469 | 9483 ft | 243 kts | 2° |
| 2026-04-20 22:13 | 52.05173 | 0.06550 | 9323 ft | 239 kts | 3° |
| 2026-04-20 22:13 | 52.06829 | 0.06639 | 9173 ft | 237 kts | 4° |
| 2026-04-20 22:14 | 52.08476 | 0.06731 | 9029 ft | 236 kts | 4° |
| 2026-04-20 22:14 | 52.10116 | 0.06679 | 8863 ft | 238 kts | 349° |
| 2026-04-20 22:14 | 52.11552 | 0.05375 | 8726 ft | 241 kts | 315° |
| 2026-04-20 22:14 | 52.12364 | 0.02992 | 8574 ft | 246 kts | 284° |
| 2026-04-20 22:15 | 52.12314 | 0.00212 | 8408 ft | 251 kts | 252° |
| 2026-04-20 22:15 | 52.11357 | -0.02130 | 8245 ft | 253 kts | 217° |
| 2026-04-20 22:15 | 52.09767 | -0.03250 | 8102 ft | 250 kts | 189° |
| 2026-04-20 22:15 | 52.08045 | -0.03682 | 7953 ft | 252 kts | 186° |
| 2026-04-20 22:16 | 52.06298 | -0.04085 | 7785 ft | 255 kts | 186° |
| 2026-04-20 22:16 | 52.04533 | -0.04503 | 7618 ft | 258 kts | 187° |
| 2026-04-20 22:16 | 52.02748 | -0.04937 | 7436 ft | 259 kts | 187° |
| 2026-04-20 22:16 | 52.00975 | -0.05372 | 7214 ft | 258 kts | 187° |
| 2026-04-20 22:17 | 51.99191 | -0.05827 | 6941 ft | 260 kts | 188° |
| 2026-04-20 22:17 | 51.97403 | -0.06331 | 6660 ft | 262 kts | 188° |
| 2026-04-20 22:17 | 51.95596 | -0.06850 | 6140 ft | 273 kts | 189° |
| 2026-04-20 22:17 | 51.93706 | -0.07399 | 5788 ft | 271 kts | 188° |
| 2026-04-20 22:18 | 51.91888 | -0.07934 | 5427 ft | 268 kts | 188° |
| 2026-04-20 22:18 | 51.90058 | -0.08477 | 5007 ft | 267 kts | 189° |
| 2026-04-20 22:18 | 51.88234 | -0.09023 | 4588 ft | 266 kts | 188° |
| 2026-04-20 22:18 | 51.86423 | -0.09573 | 4165 ft | 264 kts | 188° |
| 2026-04-20 22:19 | 51.84628 | -0.10126 | 3797 ft | 260 kts | 188° |
| 2026-04-20 22:19 | 51.82860 | -0.10170 | 3471 ft | 251 kts | 164° |
| 2026-04-20 22:19 | 51.81215 | -0.09438 | 3229 ft | 241 kts | 159° |
| 2026-04-20 22:19 | 51.79648 | -0.08663 | 3066 ft | 229 kts | 159° |
| 2026-04-20 22:20 | 51.78173 | -0.07937 | 3032 ft | 215 kts | 159° |
| 2026-04-20 22:20 | 51.76790 | -0.07264 | 3044 ft | 200 kts | 158° |
| 2026-04-20 22:20 | 51.75603 | -0.06227 | 3043 ft | 191 kts | 139° |
| 2026-04-20 22:20 | 51.74514 | -0.04978 | 3036 ft | 193 kts | 141° |
| 2026-04-20 22:21 | 51.73414 | -0.03740 | 3039 ft | 192 kts | 138° |
| 2026-04-20 22:21 | 51.72665 | -0.02081 | 3025 ft | 179 kts | 97° |
| 2026-04-20 22:21 | 51.72935 | -0.00257 | 3036 ft | 169 kts | 50° |
| 2026-04-20 22:21 | 51.73752 | 0.01094 | 2994 ft | 168 kts | 48° |
| 2026-04-20 22:22 | 51.74572 | 0.02451 | 3002 ft | 170 kts | 46° |
| 2026-04-20 22:22 | 51.75423 | 0.03793 | 2992 ft | 171 kts | 45° |
| 2026-04-20 22:22 | 51.76285 | 0.05117 | 2995 ft | 171 kts | 45° |
| 2026-04-20 22:22 | 51.77156 | 0.06438 | 2993 ft | 172 kts | 44° |
| 2026-04-20 22:23 | 51.78027 | 0.07751 | 2900 ft | 170 kts | 44° |
| 2026-04-20 22:23 | 51.78864 | 0.09009 | 2703 ft | 158 kts | 44° |
| 2026-04-20 22:23 | 51.79637 | 0.10171 | 2497 ft | 148 kts | 44° |
| 2026-04-20 22:23 | 51.80369 | 0.11272 | 2318 ft | 146 kts | 45° |
| 2026-04-20 22:24 | 51.81098 | 0.12422 | 2116 ft | 147 kts | 43° |
| 2026-04-20 22:24 | 51.81869 | 0.13514 | 1925 ft | 147 kts | 44° |
| 2026-04-20 22:24 | 51.82609 | 0.14612 | 1757 ft | 138 kts | 44° |
| 2026-04-20 22:24 | 51.83291 | 0.15638 | 1593 ft | 133 kts | 44° |
| 2026-04-20 22:25 | 51.83975 | 0.16670 | 1379 ft | 133 kts | 44° |
| 2026-04-20 22:25 | 51.84648 | 0.17684 | 1190 ft | 132 kts | 43° |
| 2026-04-20 22:25 | 51.85322 | 0.18700 | 1036 ft | 135 kts | 43° |
| 2026-04-20 22:25 | 51.86012 | 0.19739 | 838 ft | 135 kts | 42° |
| 2026-04-20 22:26 | 51.86701 | 0.20780 | 631 ft | 135 kts | 42° |
| 2026-04-20 22:26 | 51.87391 | 0.21815 | 456 ft | 136 kts | 42° |
| 2026-04-20 22:26 | 51.88078 | 0.22849 | 341 ft | 129 kts | 42° |
| 2026-04-20 22:27 | 51.88984 | 0.24206 | 347 ft | 33 kts | 47° |
| 2026-04-20 22:27 | 51.89091 | 0.24503 | 356 ft | 29 kts | 68° |
| 2026-04-20 22:27 | 51.89147 | 0.24722 | 350 ft | 19 kts | 67° |
| 2026-04-20 22:27 | 51.89163 | 0.24862 | 351 ft | 10 kts | 123° |
| 2026-04-20 22:28 | 51.89099 | 0.24860 | 361 ft | 10 kts | 216° |
| 2026-04-20 22:28 | 51.89039 | 0.24824 | 351 ft | 10 kts | 163° |
| 2026-04-20 22:28 | 51.88990 | 0.24897 | 355 ft | 10 kts | 129° |
| 2026-04-20 22:28 | 51.88968 | 0.25010 | 356 ft | 11 kts | 111° |
| 2026-04-20 22:29 | 51.88915 | 0.25115 | 359 ft | 17 kts | 134° |
| 2026-04-20 22:29 | 51.88817 | 0.25283 | 356 ft | 21 kts | 133° |
| 2026-04-20 22:29 | 51.88733 | 0.25432 | 354 ft | 4 kts | 131° |
| 2026-04-20 22:29 | 51.88733 | 0.25471 | 354 ft | 4 kts | 58° |
| 2026-04-20 22:30 | 51.88755 | 0.25510 | 351 ft | 5 kts | 43° |
| 2026-04-20 22:30 | 51.88771 | 0.25534 | 354 ft | 0 kts | 43° |